sensor_id;sensor_type;location;lat;lon;timestamp;P1;durP1;ratioP1;P2;durP2;ratioP2
66012;SDS011;52783;50.502;8.190;2022-11-20T00:02:22;13.60;;;8.38;;
66012;SDS011;52783;50.502;8.190;2022-11-20T00:04:48;8.07;;;5.03;;
66012;SDS011;52783;50.502;8.190;2022-11-20T00:07:13;13.07;;;7.78;;
66012;SDS011;52783;50.502;8.190;2022-11-20T00:09:39;15.00;;;8.20;;
66012;SDS011;52783;50.502;8.190;2022-11-20T00:12:04;11.85;;;7.70;;
66012;SDS011;52783;50.502;8.190;2022-11-20T00:14:30;12.20;;;7.32;;
66012;SDS011;52783;50.502;8.190;2022-11-20T00:16:55;8.55;;;6.22;;
66012;SDS011;52783;50.502;8.190;2022-11-20T00:19:21;16.02;;;9.18;;
66012;SDS011;52783;50.502;8.190;2022-11-20T00:21:46;13.48;;;8.60;;
66012;SDS011;52783;50.502;8.190;2022-11-20T00:24:12;15.40;;;9.68;;
66012;SDS011;52783;50.502;8.190;2022-11-20T00:26:38;14.68;;;8.57;;
66012;SDS011;52783;50.502;8.190;2022-11-20T00:29:03;12.40;;;6.97;;
66012;SDS011;52783;50.502;8.190;2022-11-20T00:31:30;18.40;;;8.40;;
66012;SDS011;52783;50.502;8.190;2022-11-20T00:33:55;11.63;;;7.88;;
66012;SDS011;52783;50.502;8.190;2022-11-20T00:36:22;11.82;;;7.85;;
66012;SDS011;52783;50.502;8.190;2022-11-20T00:38:52;14.63;;;8.75;;
66012;SDS011;52783;50.502;8.190;2022-11-20T00:41:19;16.55;;;8.43;;
66012;SDS011;52783;50.502;8.190;2022-11-20T00:43:45;18.35;;;9.07;;
66012;SDS011;52783;50.502;8.190;2022-11-20T00:46:14;15.48;;;9.20;;
66012;SDS011;52783;50.502;8.190;2022-11-20T00:48:42;12.32;;;8.13;;
66012;SDS011;52783;50.502;8.190;2022-11-20T00:51:08;14.18;;;8.90;;
66012;SDS011;52783;50.502;8.190;2022-11-20T00:53:34;12.95;;;7.60;;
66012;SDS011;52783;50.502;8.190;2022-11-20T00:56:00;15.63;;;8.55;;
66012;SDS011;52783;50.502;8.190;2022-11-20T00:58:31;14.90;;;9.05;;
66012;SDS011;52783;50.502;8.190;2022-11-20T01:03:57;12.45;;;7.65;;
66012;SDS011;52783;50.502;8.190;2022-11-20T01:06:25;13.35;;;8.30;;
66012;SDS011;52783;50.502;8.190;2022-11-20T01:08:53;15.52;;;9.25;;
66012;SDS011;52783;50.502;8.190;2022-11-20T01:11:22;19.13;;;8.35;;
66012;SDS011;52783;50.502;8.190;2022-11-20T01:13:53;10.60;;;7.03;;
66012;SDS011;52783;50.502;8.190;2022-11-20T01:16:21;17.38;;;8.63;;
66012;SDS011;52783;50.502;8.190;2022-11-20T01:18:56;12.60;;;7.97;;
66012;SDS011;52783;50.502;8.190;2022-11-20T01:21:24;16.52;;;8.18;;
66012;SDS011;52783;50.502;8.190;2022-11-20T01:23:52;9.57;;;6.30;;
66012;SDS011;52783;50.502;8.190;2022-11-20T01:26:19;11.48;;;7.40;;
66012;SDS011;52783;50.502;8.190;2022-11-20T01:28:46;13.80;;;7.60;;
66012;SDS011;52783;50.502;8.190;2022-11-20T01:31:22;13.45;;;7.80;;
66012;SDS011;52783;50.502;8.190;2022-11-20T01:33:57;11.43;;;7.22;;
66012;SDS011;52783;50.502;8.190;2022-11-20T01:36:25;12.10;;;7.72;;
66012;SDS011;52783;50.502;8.190;2022-11-20T01:38:53;12.32;;;7.13;;
66012;SDS011;52783;50.502;8.190;2022-11-20T01:41:21;10.15;;;5.85;;
66012;SDS011;52783;50.502;8.190;2022-11-20T01:44:05;9.77;;;6.50;;
66012;SDS011;52783;50.502;8.190;2022-11-20T01:46:32;12.48;;;7.22;;
66012;SDS011;52783;50.502;8.190;2022-11-20T01:49:09;13.55;;;7.22;;
66012;SDS011;52783;50.502;8.190;2022-11-20T01:54:23;12.68;;;7.32;;
66012;SDS011;52783;50.502;8.190;2022-11-20T01:56:54;13.05;;;8.20;;
66012;SDS011;52783;50.502;8.190;2022-11-20T01:59:23;13.63;;;7.40;;
66012;SDS011;52783;50.502;8.190;2022-11-20T02:01:50;12.27;;;7.78;;
66012;SDS011;52783;50.502;8.190;2022-11-20T02:04:16;12.40;;;7.07;;
66012;SDS011;52783;50.502;8.190;2022-11-20T02:06:47;12.85;;;7.05;;
66012;SDS011;52783;50.502;8.190;2022-11-20T02:09:16;13.57;;;7.40;;
66012;SDS011;52783;50.502;8.190;2022-11-20T02:11:42;14.98;;;7.70;;
66012;SDS011;52783;50.502;8.190;2022-11-20T02:14:08;13.10;;;7.03;;
66012;SDS011;52783;50.502;8.190;2022-11-20T02:16:35;11.55;;;7.63;;
66012;SDS011;52783;50.502;8.190;2022-11-20T02:19:04;17.13;;;7.55;;
66012;SDS011;52783;50.502;8.190;2022-11-20T02:21:38;13.60;;;8.07;;
66012;SDS011;52783;50.502;8.190;2022-11-20T02:24:17;14.68;;;7.57;;
66012;SDS011;52783;50.502;8.190;2022-11-20T02:29:19;13.15;;;7.18;;
66012;SDS011;52783;50.502;8.190;2022-11-20T02:31:52;13.68;;;8.43;;
66012;SDS011;52783;50.502;8.190;2022-11-20T02:34:20;14.23;;;7.93;;
66012;SDS011;52783;50.502;8.190;2022-11-20T02:36:45;13.77;;;7.97;;
66012;SDS011;52783;50.502;8.190;2022-11-20T02:39:12;15.32;;;8.00;;
66012;SDS011;52783;50.502;8.190;2022-11-20T02:41:38;12.38;;;7.78;;
66012;SDS011;52783;50.502;8.190;2022-11-20T02:44:04;16.38;;;7.95;;
66012;SDS011;52783;50.502;8.190;2022-11-20T02:49:52;11.32;;;6.15;;
66012;SDS011;52783;50.502;8.190;2022-11-20T02:52:18;13.07;;;7.25;;
66012;SDS011;52783;50.502;8.190;2022-11-20T02:54:43;12.82;;;8.15;;
66012;SDS011;52783;50.502;8.190;2022-11-20T02:57:09;15.68;;;8.25;;
66012;SDS011;52783;50.502;8.190;2022-11-20T02:59:34;14.63;;;7.75;;
66012;SDS011;52783;50.502;8.190;2022-11-20T03:02:00;15.35;;;8.13;;
66012;SDS011;52783;50.502;8.190;2022-11-20T03:04:26;16.00;;;8.45;;
66012;SDS011;52783;50.502;8.190;2022-11-20T03:06:51;12.85;;;8.23;;
66012;SDS011;52783;50.502;8.190;2022-11-20T03:09:17;18.02;;;8.90;;
66012;SDS011;52783;50.502;8.190;2022-11-20T03:11:42;17.70;;;9.25;;
66012;SDS011;52783;50.502;8.190;2022-11-20T03:14:08;15.27;;;7.82;;
66012;SDS011;52783;50.502;8.190;2022-11-20T03:16:33;10.27;;;6.38;;
66012;SDS011;52783;50.502;8.190;2022-11-20T03:18:59;11.23;;;6.80;;
66012;SDS011;52783;50.502;8.190;2022-11-20T03:21:25;10.45;;;6.57;;
66012;SDS011;52783;50.502;8.190;2022-11-20T03:23:52;14.00;;;8.18;;
66012;SDS011;52783;50.502;8.190;2022-11-20T03:26:20;11.85;;;7.32;;
66012;SDS011;52783;50.502;8.190;2022-11-20T03:28:51;11.18;;;7.43;;
66012;SDS011;52783;50.502;8.190;2022-11-20T03:31:19;9.67;;;6.10;;
66012;SDS011;52783;50.502;8.190;2022-11-20T03:33:47;12.98;;;8.27;;
66012;SDS011;52783;50.502;8.190;2022-11-20T03:36:13;13.13;;;7.47;;
66012;SDS011;52783;50.502;8.190;2022-11-20T03:38:40;20.05;;;8.38;;
66012;SDS011;52783;50.502;8.190;2022-11-20T03:41:13;12.45;;;7.20;;
66012;SDS011;52783;50.502;8.190;2022-11-20T03:43:40;11.25;;;7.05;;
66012;SDS011;52783;50.502;8.190;2022-11-20T03:46:06;14.43;;;7.97;;
66012;SDS011;52783;50.502;8.190;2022-11-20T03:48:32;12.52;;;6.80;;
66012;SDS011;52783;50.502;8.190;2022-11-20T03:51:12;11.25;;;7.25;;
66012;SDS011;52783;50.502;8.190;2022-11-20T03:53:40;12.93;;;7.80;;
66012;SDS011;52783;50.502;8.190;2022-11-20T03:56:06;14.68;;;9.02;;
66012;SDS011;52783;50.502;8.190;2022-11-20T03:58:37;14.75;;;8.48;;
66012;SDS011;52783;50.502;8.190;2022-11-20T04:01:10;17.15;;;8.73;;
66012;SDS011;52783;50.502;8.190;2022-11-20T04:03:41;15.68;;;8.45;;
66012;SDS011;52783;50.502;8.190;2022-11-20T04:06:09;14.75;;;8.85;;
66012;SDS011;52783;50.502;8.190;2022-11-20T04:13:34;15.30;;;8.82;;
66012;SDS011;52783;50.502;8.190;2022-11-20T04:16:00;15.63;;;8.98;;
66012;SDS011;52783;50.502;8.190;2022-11-20T04:18:26;16.33;;;9.50;;
66012;SDS011;52783;50.502;8.190;2022-11-20T04:20:51;15.77;;;9.18;;
66012;SDS011;52783;50.502;8.190;2022-11-20T04:23:17;16.77;;;8.95;;
66012;SDS011;52783;50.502;8.190;2022-11-20T04:25:42;17.52;;;10.18;;
66012;SDS011;52783;50.502;8.190;2022-11-20T04:28:09;14.82;;;8.57;;
66012;SDS011;52783;50.502;8.190;2022-11-20T04:30:34;15.85;;;8.63;;
66012;SDS011;52783;50.502;8.190;2022-11-20T04:33:00;13.57;;;8.15;;
66012;SDS011;52783;50.502;8.190;2022-11-20T04:35:25;17.50;;;8.80;;
66012;SDS011;52783;50.502;8.190;2022-11-20T04:37:51;14.70;;;8.73;;
66012;SDS011;52783;50.502;8.190;2022-11-20T04:40:17;14.45;;;8.07;;
66012;SDS011;52783;50.502;8.190;2022-11-20T04:42:42;13.82;;;7.80;;
66012;SDS011;52783;50.502;8.190;2022-11-20T04:45:08;16.50;;;8.65;;
66012;SDS011;52783;50.502;8.190;2022-11-20T04:47:34;16.60;;;9.10;;
66012;SDS011;52783;50.502;8.190;2022-11-20T04:49:59;16.92;;;8.57;;
66012;SDS011;52783;50.502;8.190;2022-11-20T04:52:25;14.43;;;8.35;;
66012;SDS011;52783;50.502;8.190;2022-11-20T04:54:50;16.08;;;9.40;;
66012;SDS011;52783;50.502;8.190;2022-11-20T04:57:17;15.57;;;9.40;;
66012;SDS011;52783;50.502;8.190;2022-11-20T04:59:43;14.15;;;8.65;;
66012;SDS011;52783;50.502;8.190;2022-11-20T05:02:09;19.27;;;8.77;;
66012;SDS011;52783;50.502;8.190;2022-11-20T05:04:35;17.25;;;9.75;;
66012;SDS011;52783;50.502;8.190;2022-11-20T05:07:01;15.65;;;9.15;;
66012;SDS011;52783;50.502;8.190;2022-11-20T05:09:26;17.35;;;9.23;;
66012;SDS011;52783;50.502;8.190;2022-11-20T05:11:52;19.40;;;9.60;;
66012;SDS011;52783;50.502;8.190;2022-11-20T05:14:18;19.77;;;9.63;;
66012;SDS011;52783;50.502;8.190;2022-11-20T05:16:43;23.00;;;10.75;;
66012;SDS011;52783;50.502;8.190;2022-11-20T05:19:09;19.08;;;10.45;;
66012;SDS011;52783;50.502;8.190;2022-11-20T05:21:34;18.20;;;9.65;;
66012;SDS011;52783;50.502;8.190;2022-11-20T05:24:00;17.73;;;10.13;;
66012;SDS011;52783;50.502;8.190;2022-11-20T05:26:25;16.95;;;9.80;;
66012;SDS011;52783;50.502;8.190;2022-11-20T05:28:51;16.98;;;10.20;;
66012;SDS011;52783;50.502;8.190;2022-11-20T05:31:17;20.05;;;10.60;;
66012;SDS011;52783;50.502;8.190;2022-11-20T05:33:47;19.65;;;10.90;;
66012;SDS011;52783;50.502;8.190;2022-11-20T05:36:13;27.65;;;12.18;;
66012;SDS011;52783;50.502;8.190;2022-11-20T05:38:39;21.25;;;11.82;;
66012;SDS011;52783;50.502;8.190;2022-11-20T05:41:24;24.48;;;11.57;;
66012;SDS011;52783;50.502;8.190;2022-11-20T05:43:50;29.00;;;12.88;;
66012;SDS011;52783;50.502;8.190;2022-11-20T05:46:17;19.02;;;10.18;;
66012;SDS011;52783;50.502;8.190;2022-11-20T05:48:45;23.42;;;11.63;;
66012;SDS011;52783;50.502;8.190;2022-11-20T05:51:13;25.77;;;13.07;;
66012;SDS011;52783;50.502;8.190;2022-11-20T05:53:41;22.90;;;11.48;;
66012;SDS011;52783;50.502;8.190;2022-11-20T05:56:08;27.70;;;13.10;;
66012;SDS011;52783;50.502;8.190;2022-11-20T05:58:36;22.83;;;12.77;;
66012;SDS011;52783;50.502;8.190;2022-11-20T06:03:32;33.33;;;12.30;;
66012;SDS011;52783;50.502;8.190;2022-11-20T06:05:58;26.55;;;12.55;;
66012;SDS011;52783;50.502;8.190;2022-11-20T06:08:24;34.58;;;13.52;;
66012;SDS011;52783;50.502;8.190;2022-11-20T06:10:50;40.58;;;15.45;;
66012;SDS011;52783;50.502;8.190;2022-11-20T06:13:16;31.55;;;14.10;;
66012;SDS011;52783;50.502;8.190;2022-11-20T06:15:41;35.80;;;15.55;;
66012;SDS011;52783;50.502;8.190;2022-11-20T06:18:07;33.90;;;14.27;;
66012;SDS011;52783;50.502;8.190;2022-11-20T06:20:32;35.97;;;14.95;;
66012;SDS011;52783;50.502;8.190;2022-11-20T06:22:58;35.70;;;15.82;;
66012;SDS011;52783;50.502;8.190;2022-11-20T06:25:23;34.28;;;14.30;;
66012;SDS011;52783;50.502;8.190;2022-11-20T06:27:49;29.65;;;14.43;;
66012;SDS011;52783;50.502;8.190;2022-11-20T06:30:14;28.15;;;14.18;;
66012;SDS011;52783;50.502;8.190;2022-11-20T06:32:40;31.38;;;14.10;;
66012;SDS011;52783;50.502;8.190;2022-11-20T06:35:06;29.98;;;14.27;;
66012;SDS011;52783;50.502;8.190;2022-11-20T06:37:32;33.08;;;14.27;;
66012;SDS011;52783;50.502;8.190;2022-11-20T06:39:57;36.72;;;14.07;;
66012;SDS011;52783;50.502;8.190;2022-11-20T06:42:23;33.90;;;15.93;;
66012;SDS011;52783;50.502;8.190;2022-11-20T06:44:48;37.65;;;15.68;;
66012;SDS011;52783;50.502;8.190;2022-11-20T06:47:14;39.53;;;16.77;;
66012;SDS011;52783;50.502;8.190;2022-11-20T06:49:39;31.75;;;14.50;;
66012;SDS011;52783;50.502;8.190;2022-11-20T06:52:05;31.20;;;14.55;;
66012;SDS011;52783;50.502;8.190;2022-11-20T06:54:30;34.90;;;16.13;;
66012;SDS011;52783;50.502;8.190;2022-11-20T06:56:56;33.13;;;15.77;;
66012;SDS011;52783;50.502;8.190;2022-11-20T06:59:21;30.75;;;14.07;;
66012;SDS011;52783;50.502;8.190;2022-11-20T07:01:47;33.03;;;15.82;;
66012;SDS011;52783;50.502;8.190;2022-11-20T07:04:12;35.60;;;15.75;;
66012;SDS011;52783;50.502;8.190;2022-11-20T07:06:38;32.05;;;15.27;;
66012;SDS011;52783;50.502;8.190;2022-11-20T07:09:03;25.45;;;13.90;;
66012;SDS011;52783;50.502;8.190;2022-11-20T07:11:29;30.08;;;14.90;;
66012;SDS011;52783;50.502;8.190;2022-11-20T07:13:56;34.05;;;15.18;;
66012;SDS011;52783;50.502;8.190;2022-11-20T07:16:22;39.20;;;14.73;;
66012;SDS011;52783;50.502;8.190;2022-11-20T07:18:47;31.88;;;14.48;;
66012;SDS011;52783;50.502;8.190;2022-11-20T07:21:13;28.13;;;13.27;;
66012;SDS011;52783;50.502;8.190;2022-11-20T07:23:38;26.35;;;13.10;;
66012;SDS011;52783;50.502;8.190;2022-11-20T07:26:04;31.98;;;13.82;;
66012;SDS011;52783;50.502;8.190;2022-11-20T07:28:34;35.08;;;14.68;;
66012;SDS011;52783;50.502;8.190;2022-11-20T07:31:00;33.25;;;15.18;;
66012;SDS011;52783;50.502;8.190;2022-11-20T07:33:26;32.42;;;14.73;;
66012;SDS011;52783;50.502;8.190;2022-11-20T07:35:52;37.97;;;16.88;;
66012;SDS011;52783;50.502;8.190;2022-11-20T07:38:17;36.45;;;15.45;;
66012;SDS011;52783;50.502;8.190;2022-11-20T07:40:43;35.63;;;17.05;;
66012;SDS011;52783;50.502;8.190;2022-11-20T07:43:08;35.78;;;17.50;;
66012;SDS011;52783;50.502;8.190;2022-11-20T07:45:34;34.55;;;16.27;;
66012;SDS011;52783;50.502;8.190;2022-11-20T07:48:00;33.15;;;14.88;;
66012;SDS011;52783;50.502;8.190;2022-11-20T07:50:25;30.88;;;16.02;;
66012;SDS011;52783;50.502;8.190;2022-11-20T07:52:51;32.67;;;15.48;;
66012;SDS011;52783;50.502;8.190;2022-11-20T07:55:17;28.58;;;14.63;;
66012;SDS011;52783;50.502;8.190;2022-11-20T07:57:43;32.55;;;15.35;;
66012;SDS011;52783;50.502;8.190;2022-11-20T08:00:09;25.85;;;13.88;;
66012;SDS011;52783;50.502;8.190;2022-11-20T08:02:39;36.22;;;15.65;;
66012;SDS011;52783;50.502;8.190;2022-11-20T08:07:35;36.25;;;16.88;;
66012;SDS011;52783;50.502;8.190;2022-11-20T08:10:02;44.80;;;18.33;;
66012;SDS011;52783;50.502;8.190;2022-11-20T08:12:28;39.72;;;17.10;;
66012;SDS011;52783;50.502;8.190;2022-11-20T08:15:12;36.10;;;16.65;;
66012;SDS011;52783;50.502;8.190;2022-11-20T08:17:40;41.03;;;17.40;;
66012;SDS011;52783;50.502;8.190;2022-11-20T08:20:06;41.85;;;19.00;;
66012;SDS011;52783;50.502;8.190;2022-11-20T08:22:32;44.70;;;20.13;;
66012;SDS011;52783;50.502;8.190;2022-11-20T08:24:58;44.17;;;18.55;;
66012;SDS011;52783;50.502;8.190;2022-11-20T08:27:23;45.75;;;17.52;;
66012;SDS011;52783;50.502;8.190;2022-11-20T08:29:52;46.78;;;18.90;;
66012;SDS011;52783;50.502;8.190;2022-11-20T08:32:18;38.35;;;17.58;;
66012;SDS011;52783;50.502;8.190;2022-11-20T08:34:43;43.50;;;19.58;;
66012;SDS011;52783;50.502;8.190;2022-11-20T08:37:09;47.70;;;18.13;;
66012;SDS011;52783;50.502;8.190;2022-11-20T08:39:35;38.30;;;17.75;;
66012;SDS011;52783;50.502;8.190;2022-11-20T08:42:00;40.33;;;16.77;;
66012;SDS011;52783;50.502;8.190;2022-11-20T08:44:26;48.22;;;19.35;;
66012;SDS011;52783;50.502;8.190;2022-11-20T08:46:51;48.35;;;19.60;;
66012;SDS011;52783;50.502;8.190;2022-11-20T08:49:17;50.38;;;19.92;;
66012;SDS011;52783;50.502;8.190;2022-11-20T08:51:43;54.40;;;21.85;;
66012;SDS011;52783;50.502;8.190;2022-11-20T08:54:09;41.85;;;19.83;;
66012;SDS011;52783;50.502;8.190;2022-11-20T08:56:34;37.67;;;18.05;;
66012;SDS011;52783;50.502;8.190;2022-11-20T08:59:00;45.97;;;18.70;;
66012;SDS011;52783;50.502;8.190;2022-11-20T09:01:26;41.35;;;17.67;;
66012;SDS011;52783;50.502;8.190;2022-11-20T09:03:52;47.40;;;18.13;;
66012;SDS011;52783;50.502;8.190;2022-11-20T09:06:29;46.08;;;18.83;;
66012;SDS011;52783;50.502;8.190;2022-11-20T09:08:55;46.67;;;17.52;;
66012;SDS011;52783;50.502;8.190;2022-11-20T09:11:21;39.50;;;18.58;;
66012;SDS011;52783;50.502;8.190;2022-11-20T09:13:47;48.33;;;19.13;;
66012;SDS011;52783;50.502;8.190;2022-11-20T09:16:13;42.63;;;17.70;;
66012;SDS011;52783;50.502;8.190;2022-11-20T09:18:39;42.97;;;18.17;;
66012;SDS011;52783;50.502;8.190;2022-11-20T09:21:05;47.72;;;18.42;;
66012;SDS011;52783;50.502;8.190;2022-11-20T09:23:35;44.22;;;17.15;;
66012;SDS011;52783;50.502;8.190;2022-11-20T09:26:05;46.00;;;19.27;;
66012;SDS011;52783;50.502;8.190;2022-11-20T09:28:35;43.45;;;19.52;;
66012;SDS011;52783;50.502;8.190;2022-11-20T09:31:04;52.60;;;22.23;;
66012;SDS011;52783;50.502;8.190;2022-11-20T09:33:31;44.47;;;20.50;;
66012;SDS011;52783;50.502;8.190;2022-11-20T09:35:56;45.55;;;19.17;;
66012;SDS011;52783;50.502;8.190;2022-11-20T09:38:22;39.25;;;16.50;;
66012;SDS011;52783;50.502;8.190;2022-11-20T09:40:58;41.97;;;18.15;;
66012;SDS011;52783;50.502;8.190;2022-11-20T09:43:32;36.90;;;16.15;;
66012;SDS011;52783;50.502;8.190;2022-11-20T09:46:14;38.92;;;18.35;;
66012;SDS011;52783;50.502;8.190;2022-11-20T09:49:09;42.97;;;17.48;;
66012;SDS011;52783;50.502;8.190;2022-11-20T09:51:46;31.67;;;14.30;;
66012;SDS011;52783;50.502;8.190;2022-11-20T09:54:26;46.75;;;16.85;;
66012;SDS011;52783;50.502;8.190;2022-11-20T09:57:42;30.42;;;12.40;;
66012;SDS011;52783;50.502;8.190;2022-11-20T09:59:50;24.52;;;12.50;;
66012;SDS011;52783;50.502;8.190;2022-11-20T10:04:53;30.63;;;13.48;;
66012;SDS011;52783;50.502;8.190;2022-11-20T10:07:41;28.15;;;13.57;;
66012;SDS011;52783;50.502;8.190;2022-11-20T10:10:16;35.35;;;15.50;;
66012;SDS011;52783;50.502;8.190;2022-11-20T10:12:50;38.88;;;16.35;;
66012;SDS011;52783;50.502;8.190;2022-11-20T10:15:45;40.67;;;18.02;;
66012;SDS011;52783;50.502;8.190;2022-11-20T10:21:20;44.38;;;17.85;;
66012;SDS011;52783;50.502;8.190;2022-11-20T10:24:02;44.92;;;17.02;;
66012;SDS011;52783;50.502;8.190;2022-11-20T10:26:47;38.83;;;16.98;;
66012;SDS011;52783;50.502;8.190;2022-11-20T10:29:34;41.63;;;17.80;;
66012;SDS011;52783;50.502;8.190;2022-11-20T10:32:04;36.28;;;16.98;;
66012;SDS011;52783;50.502;8.190;2022-11-20T10:37:12;40.63;;;16.65;;
66012;SDS011;52783;50.502;8.190;2022-11-20T10:42:52;40.50;;;16.45;;
66012;SDS011;52783;50.502;8.190;2022-11-20T10:45:27;39.25;;;19.40;;
66012;SDS011;52783;50.502;8.190;2022-11-20T10:48:07;36.38;;;16.95;;
66012;SDS011;52783;50.502;8.190;2022-11-20T10:53:42;47.72;;;19.83;;
66012;SDS011;52783;50.502;8.190;2022-11-20T10:56:20;36.25;;;15.23;;
66012;SDS011;52783;50.502;8.190;2022-11-20T10:58:54;38.00;;;16.00;;
66012;SDS011;52783;50.502;8.190;2022-11-20T11:01:38;34.15;;;15.48;;
66012;SDS011;52783;50.502;8.190;2022-11-20T11:04:07;39.28;;;16.17;;
66012;SDS011;52783;50.502;8.190;2022-11-20T11:07:05;33.78;;;15.80;;
66012;SDS011;52783;50.502;8.190;2022-11-20T11:09:57;39.55;;;18.63;;
66012;SDS011;52783;50.502;8.190;2022-11-20T11:12:24;36.55;;;16.23;;
66012;SDS011;52783;50.502;8.190;2022-11-20T11:14:54;38.28;;;16.92;;
66012;SDS011;52783;50.502;8.190;2022-11-20T11:17:23;38.38;;;17.48;;
66012;SDS011;52783;50.502;8.190;2022-11-20T11:25:21;34.85;;;15.77;;
66012;SDS011;52783;50.502;8.190;2022-11-20T11:27:51;43.30;;;18.52;;
66012;SDS011;52783;50.502;8.190;2022-11-20T11:30:19;38.38;;;16.52;;
66012;SDS011;52783;50.502;8.190;2022-11-20T11:32:45;44.70;;;19.17;;
66012;SDS011;52783;50.502;8.190;2022-11-20T11:35:22;56.13;;;25.23;;
66012;SDS011;52783;50.502;8.190;2022-11-20T11:37:52;50.63;;;22.55;;
66012;SDS011;52783;50.502;8.190;2022-11-20T11:40:31;41.10;;;18.65;;
66012;SDS011;52783;50.502;8.190;2022-11-20T11:43:05;38.88;;;16.38;;
66012;SDS011;52783;50.502;8.190;2022-11-20T11:46:00;33.47;;;15.55;;
66012;SDS011;52783;50.502;8.190;2022-11-20T11:48:26;39.38;;;16.83;;
66012;SDS011;52783;50.502;8.190;2022-11-20T11:50:52;34.20;;;16.70;;
66012;SDS011;52783;50.502;8.190;2022-11-20T11:53:19;36.25;;;16.70;;
66012;SDS011;52783;50.502;8.190;2022-11-20T11:55:47;38.17;;;17.50;;
66012;SDS011;52783;50.502;8.190;2022-11-20T11:58:39;37.40;;;16.63;;
66012;SDS011;52783;50.502;8.190;2022-11-20T12:07:14;41.17;;;16.48;;
66012;SDS011;52783;50.502;8.190;2022-11-20T12:09:52;41.55;;;16.98;;
66012;SDS011;52783;50.502;8.190;2022-11-20T12:12:20;37.08;;;15.50;;
66012;SDS011;52783;50.502;8.190;2022-11-20T12:14:54;37.25;;;17.83;;
66012;SDS011;52783;50.502;8.190;2022-11-20T12:17:21;32.97;;;15.57;;
66012;SDS011;52783;50.502;8.190;2022-11-20T12:19:47;32.13;;;14.98;;
66012;SDS011;52783;50.502;8.190;2022-11-20T12:22:19;29.17;;;15.45;;
66012;SDS011;52783;50.502;8.190;2022-11-20T12:25:00;32.72;;;15.85;;
66012;SDS011;52783;50.502;8.190;2022-11-20T12:32:35;33.08;;;16.27;;
66012;SDS011;52783;50.502;8.190;2022-11-20T12:38:33;30.55;;;14.55;;
66012;SDS011;52783;50.502;8.190;2022-11-20T12:44:42;30.42;;;13.70;;
66012;SDS011;52783;50.502;8.190;2022-11-20T12:48:11;30.45;;;13.23;;
66012;SDS011;52783;50.502;8.190;2022-11-20T13:02:03;24.55;;;12.00;;
66012;SDS011;52783;50.502;8.190;2022-11-20T13:06:58;29.25;;;14.70;;
66012;SDS011;52783;50.502;8.190;2022-11-20T13:09:26;32.00;;;12.98;;
66012;SDS011;52783;50.502;8.190;2022-11-20T13:14:53;24.70;;;14.38;;
66012;SDS011;52783;50.502;8.190;2022-11-20T13:17:43;26.08;;;12.95;;
66012;SDS011;52783;50.502;8.190;2022-11-20T13:20:18;31.77;;;14.38;;
66012;SDS011;52783;50.502;8.190;2022-11-20T13:22:54;26.73;;;13.90;;
66012;SDS011;52783;50.502;8.190;2022-11-20T13:25:24;33.40;;;14.88;;
66012;SDS011;52783;50.502;8.190;2022-11-20T13:30:21;28.98;;;13.05;;
66012;SDS011;52783;50.502;8.190;2022-11-20T13:32:49;26.55;;;13.05;;
66012;SDS011;52783;50.502;8.190;2022-11-20T13:35:24;28.83;;;13.32;;
66012;SDS011;52783;50.502;8.190;2022-11-20T13:38:10;24.33;;;12.50;;
66012;SDS011;52783;50.502;8.190;2022-11-20T13:40:49;28.83;;;13.52;;
66012;SDS011;52783;50.502;8.190;2022-11-20T13:46:09;30.55;;;14.88;;
66012;SDS011;52783;50.502;8.190;2022-11-20T13:48:38;26.73;;;13.00;;
66012;SDS011;52783;50.502;8.190;2022-11-20T13:56:34;26.00;;;12.85;;
66012;SDS011;52783;50.502;8.190;2022-11-20T13:59:14;30.10;;;14.27;;
66012;SDS011;52783;50.502;8.190;2022-11-20T14:01:54;25.98;;;14.05;;
66012;SDS011;52783;50.502;8.190;2022-11-20T14:04:30;30.42;;;14.43;;
66012;SDS011;52783;50.502;8.190;2022-11-20T14:07:00;29.75;;;13.70;;
66012;SDS011;52783;50.502;8.190;2022-11-20T14:09:30;30.35;;;14.98;;
66012;SDS011;52783;50.502;8.190;2022-11-20T14:11:57;28.98;;;14.10;;
66012;SDS011;52783;50.502;8.190;2022-11-20T14:14:23;30.85;;;15.68;;
66012;SDS011;52783;50.502;8.190;2022-11-20T14:16:51;29.75;;;15.30;;
66012;SDS011;52783;50.502;8.190;2022-11-20T14:22:09;29.08;;;13.45;;
66012;SDS011;52783;50.502;8.190;2022-11-20T14:24:42;25.83;;;12.80;;
66012;SDS011;52783;50.502;8.190;2022-11-20T14:27:15;28.48;;;13.52;;
66012;SDS011;52783;50.502;8.190;2022-11-20T14:29:43;28.88;;;14.45;;
66012;SDS011;52783;50.502;8.190;2022-11-20T14:32:11;29.00;;;12.65;;
66012;SDS011;52783;50.502;8.190;2022-11-20T14:34:39;29.75;;;13.40;;
66012;SDS011;52783;50.502;8.190;2022-11-20T14:37:11;28.70;;;12.25;;
66012;SDS011;52783;50.502;8.190;2022-11-20T14:39:42;28.83;;;13.35;;
66012;SDS011;52783;50.502;8.190;2022-11-20T14:42:17;24.05;;;12.77;;
66012;SDS011;52783;50.502;8.190;2022-11-20T14:44:44;25.50;;;11.50;;
66012;SDS011;52783;50.502;8.190;2022-11-20T14:47:11;22.08;;;11.23;;
66012;SDS011;52783;50.502;8.190;2022-11-20T14:49:40;26.88;;;11.57;;
66012;SDS011;52783;50.502;8.190;2022-11-20T14:52:13;22.80;;;11.13;;
66012;SDS011;52783;50.502;8.190;2022-11-20T14:54:44;25.02;;;13.30;;
66012;SDS011;52783;50.502;8.190;2022-11-20T14:57:25;29.92;;;15.18;;
66012;SDS011;52783;50.502;8.190;2022-11-20T15:02:43;36.42;;;19.58;;
66012;SDS011;52783;50.502;8.190;2022-11-20T15:05:10;33.05;;;16.17;;
66012;SDS011;52783;50.502;8.190;2022-11-20T15:07:37;35.08;;;16.60;;
66012;SDS011;52783;50.502;8.190;2022-11-20T15:10:07;36.90;;;17.95;;
66012;SDS011;52783;50.502;8.190;2022-11-20T15:12:37;40.50;;;18.67;;
66012;SDS011;52783;50.502;8.190;2022-11-20T15:15:10;41.33;;;18.33;;
66012;SDS011;52783;50.502;8.190;2022-11-20T15:17:39;37.22;;;17.48;;
66012;SDS011;52783;50.502;8.190;2022-11-20T15:20:09;40.63;;;18.88;;
66012;SDS011;52783;50.502;8.190;2022-11-20T15:22:39;43.33;;;21.48;;
66012;SDS011;52783;50.502;8.190;2022-11-20T15:25:11;27.05;;;14.38;;
66012;SDS011;52783;50.502;8.190;2022-11-20T15:27:38;23.98;;;12.75;;
66012;SDS011;52783;50.502;8.190;2022-11-20T15:30:11;45.92;;;17.92;;
66012;SDS011;52783;50.502;8.190;2022-11-20T15:32:41;37.83;;;16.10;;
66012;SDS011;52783;50.502;8.190;2022-11-20T15:35:08;34.92;;;17.20;;
66012;SDS011;52783;50.502;8.190;2022-11-20T15:37:35;44.75;;;17.98;;
66012;SDS011;52783;50.502;8.190;2022-11-20T15:40:02;36.13;;;17.10;;
66012;SDS011;52783;50.502;8.190;2022-11-20T15:42:28;41.75;;;17.55;;
66012;SDS011;52783;50.502;8.190;2022-11-20T15:44:53;34.10;;;12.77;;
66012;SDS011;52783;50.502;8.190;2022-11-20T15:47:20;53.63;;;21.92;;
66012;SDS011;52783;50.502;8.190;2022-11-20T15:49:54;40.60;;;18.25;;
66012;SDS011;52783;50.502;8.190;2022-11-20T15:52:20;34.45;;;16.30;;
66012;SDS011;52783;50.502;8.190;2022-11-20T15:54:46;34.95;;;15.80;;
66012;SDS011;52783;50.502;8.190;2022-11-20T15:57:11;32.90;;;15.50;;
66012;SDS011;52783;50.502;8.190;2022-11-20T15:59:37;36.00;;;16.83;;
66012;SDS011;52783;50.502;8.190;2022-11-20T16:02:10;35.47;;;17.70;;
66012;SDS011;52783;50.502;8.190;2022-11-20T16:04:36;41.50;;;19.33;;
66012;SDS011;52783;50.502;8.190;2022-11-20T16:07:02;31.70;;;14.73;;
66012;SDS011;52783;50.502;8.190;2022-11-20T16:09:28;29.15;;;14.95;;
66012;SDS011;52783;50.502;8.190;2022-11-20T16:11:53;32.05;;;16.10;;